sensor_id;sensor_type;location;lat;lon;timestamp;P1;durP1;ratioP1;P2;durP2;ratioP2
47960;SDS011;33721;48.852;9.936;2022-10-16T00:00:43;11.77;;;7.38;;
47960;SDS011;33721;48.852;9.936;2022-10-16T00:03:08;9.32;;;4.68;;
47960;SDS011;33721;48.852;9.936;2022-10-16T00:05:41;12.77;;;4.65;;
47960;SDS011;33721;48.852;9.936;2022-10-16T00:08:08;6.40;;;3.83;;
47960;SDS011;33721;48.852;9.936;2022-10-16T00:10:35;8.23;;;3.92;;
47960;SDS011;33721;48.852;9.936;2022-10-16T00:13:01;5.93;;;3.50;;
47960;SDS011;33721;48.852;9.936;2022-10-16T00:15:27;6.10;;;3.47;;
47960;SDS011;33721;48.852;9.936;2022-10-16T00:17:53;5.55;;;3.45;;
47960;SDS011;33721;48.852;9.936;2022-10-16T00:20:19;10.23;;;3.17;;
47960;SDS011;33721;48.852;9.936;2022-10-16T00:22:44;11.35;;;4.15;;
47960;SDS011;33721;48.852;9.936;2022-10-16T00:25:10;5.30;;;3.15;;
47960;SDS011;33721;48.852;9.936;2022-10-16T00:27:35;5.07;;;3.03;;
47960;SDS011;33721;48.852;9.936;2022-10-16T00:30:01;4.60;;;2.88;;
47960;SDS011;33721;48.852;9.936;2022-10-16T00:32:28;4.05;;;2.75;;
47960;SDS011;33721;48.852;9.936;2022-10-16T00:34:53;10.18;;;2.83;;
47960;SDS011;33721;48.852;9.936;2022-10-16T00:37:19;117.53;;;7.50;;
47960;SDS011;33721;48.852;9.936;2022-10-16T00:39:45;392.85;;;10.30;;
47960;SDS011;33721;48.852;9.936;2022-10-16T00:42:15;50.75;;;6.88;;
47960;SDS011;33721;48.852;9.936;2022-10-16T00:47:34;8.30;;;3.65;;
47960;SDS011;33721;48.852;9.936;2022-10-16T00:50:29;8.38;;;4.70;;
47960;SDS011;33721;48.852;9.936;2022-10-16T00:52:57;7.93;;;4.43;;
47960;SDS011;33721;48.852;9.936;2022-10-16T00:55:25;7.43;;;4.55;;
47960;SDS011;33721;48.852;9.936;2022-10-16T00:57:53;8.85;;;4.32;;
47960;SDS011;33721;48.852;9.936;2022-10-16T01:00:23;16.95;;;4.78;;
47960;SDS011;33721;48.852;9.936;2022-10-16T01:02:54;11.45;;;5.97;;
47960;SDS011;33721;48.852;9.936;2022-10-16T01:05:23;17.77;;;7.05;;
47960;SDS011;33721;48.852;9.936;2022-10-16T01:08:04;13.88;;;7.78;;
47960;SDS011;33721;48.852;9.936;2022-10-16T01:11:00;10.88;;;6.15;;
47960;SDS011;33721;48.852;9.936;2022-10-16T01:13:35;15.85;;;7.00;;
47960;SDS011;33721;48.852;9.936;2022-10-16T01:16:13;17.23;;;6.82;;
47960;SDS011;33721;48.852;9.936;2022-10-16T01:18:46;14.45;;;8.73;;
47960;SDS011;33721;48.852;9.936;2022-10-16T01:21:26;7.88;;;4.65;;
47960;SDS011;33721;48.852;9.936;2022-10-16T01:35:02;4.65;;;2.72;;
47960;SDS011;33721;48.852;9.936;2022-10-16T01:37:33;5.20;;;2.78;;
47960;SDS011;33721;48.852;9.936;2022-10-16T01:40:03;6.85;;;3.40;;
47960;SDS011;33721;48.852;9.936;2022-10-16T01:42:35;7.00;;;2.80;;
47960;SDS011;33721;48.852;9.936;2022-10-16T01:45:14;6.67;;;2.70;;
47960;SDS011;33721;48.852;9.936;2022-10-16T01:47:43;3.97;;;2.67;;
47960;SDS011;33721;48.852;9.936;2022-10-16T01:50:09;3.65;;;2.53;;
47960;SDS011;33721;48.852;9.936;2022-10-16T01:52:37;5.75;;;2.50;;
47960;SDS011;33721;48.852;9.936;2022-10-16T01:55:07;20.48;;;7.00;;
47960;SDS011;33721;48.852;9.936;2022-10-16T01:57:36;63.72;;;6.45;;
47960;SDS011;33721;48.852;9.936;2022-10-16T02:00:07;327.58;;;9.65;;
47960;SDS011;33721;48.852;9.936;2022-10-16T02:02:35;16.90;;;4.10;;
47960;SDS011;33721;48.852;9.936;2022-10-16T02:05:05;8.50;;;3.67;;
47960;SDS011;33721;48.852;9.936;2022-10-16T02:08:06;12.27;;;4.63;;
47960;SDS011;33721;48.852;9.936;2022-10-16T02:10:32;9.77;;;4.50;;
47960;SDS011;33721;48.852;9.936;2022-10-16T02:13:01;8.05;;;3.97;;
47960;SDS011;33721;48.852;9.936;2022-10-16T02:15:32;9.30;;;4.22;;
47960;SDS011;33721;48.852;9.936;2022-10-16T02:17:57;5.15;;;3.50;;
47960;SDS011;33721;48.852;9.936;2022-10-16T02:20:25;7.50;;;3.88;;
47960;SDS011;33721;48.852;9.936;2022-10-16T02:22:53;5.57;;;3.50;;
47960;SDS011;33721;48.852;9.936;2022-10-16T02:25:27;7.57;;;3.78;;
47960;SDS011;33721;48.852;9.936;2022-10-16T02:30:45;10.32;;;4.20;;
47960;SDS011;33721;48.852;9.936;2022-10-16T02:33:14;12.48;;;4.40;;
47960;SDS011;33721;48.852;9.936;2022-10-16T02:35:41;5.07;;;3.35;;
47960;SDS011;33721;48.852;9.936;2022-10-16T02:38:10;9.13;;;3.70;;
47960;SDS011;33721;48.852;9.936;2022-10-16T02:40:37;6.72;;;3.10;;
47960;SDS011;33721;48.852;9.936;2022-10-16T02:43:04;15.57;;;3.85;;
47960;SDS011;33721;48.852;9.936;2022-10-16T02:45:30;6.20;;;3.90;;
47960;SDS011;33721;48.852;9.936;2022-10-16T02:47:56;6.75;;;3.65;;
47960;SDS011;33721;48.852;9.936;2022-10-16T02:50:22;13.52;;;4.03;;
47960;SDS011;33721;48.852;9.936;2022-10-16T02:52:48;6.55;;;3.38;;
47960;SDS011;33721;48.852;9.936;2022-10-16T02:55:13;7.82;;;2.67;;
47960;SDS011;33721;48.852;9.936;2022-10-16T02:57:39;4.75;;;2.88;;
47960;SDS011;33721;48.852;9.936;2022-10-16T03:00:05;4.05;;;2.75;;
47960;SDS011;33721;48.852;9.936;2022-10-16T03:02:33;3.92;;;3.05;;
47960;SDS011;33721;48.852;9.936;2022-10-16T03:04:58;4.53;;;3.03;;
47960;SDS011;33721;48.852;9.936;2022-10-16T03:07:24;5.95;;;3.40;;
47960;SDS011;33721;48.852;9.936;2022-10-16T03:09:49;3.45;;;2.65;;
47960;SDS011;33721;48.852;9.936;2022-10-16T03:12:15;6.88;;;2.60;;
47960;SDS011;33721;48.852;9.936;2022-10-16T03:14:41;5.25;;;3.28;;
47960;SDS011;33721;48.852;9.936;2022-10-16T03:17:06;37.90;;;4.95;;
47960;SDS011;33721;48.852;9.936;2022-10-16T03:19:32;11.70;;;4.40;;
47960;SDS011;33721;48.852;9.936;2022-10-16T03:21:57;11.38;;;4.97;;
47960;SDS011;33721;48.852;9.936;2022-10-16T03:24:23;7.20;;;3.90;;
47960;SDS011;33721;48.852;9.936;2022-10-16T03:26:49;5.45;;;3.10;;
47960;SDS011;33721;48.852;9.936;2022-10-16T03:29:14;4.90;;;2.85;;
47960;SDS011;33721;48.852;9.936;2022-10-16T03:31:40;3.95;;;2.35;;
47960;SDS011;33721;48.852;9.936;2022-10-16T03:34:06;5.22;;;3.22;;
47960;SDS011;33721;48.852;9.936;2022-10-16T03:36:32;9.02;;;3.72;;
47960;SDS011;33721;48.852;9.936;2022-10-16T03:38:57;3.30;;;1.95;;
47960;SDS011;33721;48.852;9.936;2022-10-16T03:41:23;7.50;;;3.58;;
47960;SDS011;33721;48.852;9.936;2022-10-16T03:43:49;4.32;;;2.90;;
47960;SDS011;33721;48.852;9.936;2022-10-16T03:46:14;5.13;;;3.70;;
47960;SDS011;33721;48.852;9.936;2022-10-16T03:48:40;6.13;;;3.35;;
47960;SDS011;33721;48.852;9.936;2022-10-16T03:51:06;10.57;;;3.50;;
47960;SDS011;33721;48.852;9.936;2022-10-16T03:53:31;4.10;;;2.80;;
47960;SDS011;33721;48.852;9.936;2022-10-16T03:55:57;4.95;;;3.00;;
47960;SDS011;33721;48.852;9.936;2022-10-16T03:58:23;5.40;;;3.17;;
47960;SDS011;33721;48.852;9.936;2022-10-16T04:00:49;7.57;;;3.13;;
47960;SDS011;33721;48.852;9.936;2022-10-16T04:03:14;5.88;;;2.70;;
47960;SDS011;33721;48.852;9.936;2022-10-16T04:05:40;4.10;;;2.50;;
47960;SDS011;33721;48.852;9.936;2022-10-16T04:08:06;4.05;;;2.80;;
47960;SDS011;33721;48.852;9.936;2022-10-16T04:10:32;6.88;;;2.88;;
47960;SDS011;33721;48.852;9.936;2022-10-16T04:12:58;7.30;;;2.83;;
47960;SDS011;33721;48.852;9.936;2022-10-16T04:15:24;6.60;;;2.95;;
47960;SDS011;33721;48.852;9.936;2022-10-16T04:17:50;3.88;;;2.67;;
47960;SDS011;33721;48.852;9.936;2022-10-16T04:20:17;5.50;;;2.70;;
47960;SDS011;33721;48.852;9.936;2022-10-16T04:22:43;3.70;;;2.63;;
47960;SDS011;33721;48.852;9.936;2022-10-16T04:25:09;4.03;;;2.85;;
47960;SDS011;33721;48.852;9.936;2022-10-16T04:27:36;4.82;;;2.60;;
47960;SDS011;33721;48.852;9.936;2022-10-16T04:30:01;3.08;;;2.35;;
47960;SDS011;33721;48.852;9.936;2022-10-16T04:32:27;4.68;;;2.60;;
47960;SDS011;33721;48.852;9.936;2022-10-16T04:34:53;4.00;;;2.53;;
47960;SDS011;33721;48.852;9.936;2022-10-16T04:37:19;4.97;;;2.70;;
47960;SDS011;33721;48.852;9.936;2022-10-16T04:39:49;3.22;;;2.40;;
47960;SDS011;33721;48.852;9.936;2022-10-16T04:42:14;5.50;;;3.13;;
47960;SDS011;33721;48.852;9.936;2022-10-16T04:44:40;8.20;;;2.90;;
47960;SDS011;33721;48.852;9.936;2022-10-16T04:47:06;4.82;;;2.50;;
47960;SDS011;33721;48.852;9.936;2022-10-16T04:49:31;3.42;;;2.47;;
47960;SDS011;33721;48.852;9.936;2022-10-16T04:51:57;4.15;;;2.35;;
47960;SDS011;33721;48.852;9.936;2022-10-16T04:54:22;6.50;;;3.25;;
47960;SDS011;33721;48.852;9.936;2022-10-16T04:56:48;5.30;;;2.97;;
47960;SDS011;33721;48.852;9.936;2022-10-16T04:59:16;5.13;;;3.30;;
47960;SDS011;33721;48.852;9.936;2022-10-16T05:01:42;11.15;;;3.50;;
47960;SDS011;33721;48.852;9.936;2022-10-16T05:04:08;6.05;;;3.55;;
47960;SDS011;33721;48.852;9.936;2022-10-16T05:06:34;8.85;;;3.42;;
47960;SDS011;33721;48.852;9.936;2022-10-16T05:09:00;12.65;;;4.45;;
47960;SDS011;33721;48.852;9.936;2022-10-16T05:11:25;8.10;;;4.10;;
47960;SDS011;33721;48.852;9.936;2022-10-16T05:13:51;10.27;;;3.75;;
47960;SDS011;33721;48.852;9.936;2022-10-16T05:16:16;6.18;;;4.10;;
47960;SDS011;33721;48.852;9.936;2022-10-16T05:18:42;9.07;;;4.05;;
47960;SDS011;33721;48.852;9.936;2022-10-16T05:21:08;9.55;;;3.97;;
47960;SDS011;33721;48.852;9.936;2022-10-16T05:23:33;7.85;;;3.70;;
47960;SDS011;33721;48.852;9.936;2022-10-16T05:25:59;7.72;;;3.88;;
47960;SDS011;33721;48.852;9.936;2022-10-16T05:28:26;6.10;;;3.97;;
47960;SDS011;33721;48.852;9.936;2022-10-16T05:30:52;6.85;;;3.60;;
47960;SDS011;33721;48.852;9.936;2022-10-16T05:33:22;4.28;;;2.97;;
47960;SDS011;33721;48.852;9.936;2022-10-16T05:35:49;6.57;;;3.15;;
47960;SDS011;33721;48.852;9.936;2022-10-16T05:38:15;141.10;;;6.05;;
47960;SDS011;33721;48.852;9.936;2022-10-16T05:40:41;48.88;;;5.97;;
47960;SDS011;33721;48.852;9.936;2022-10-16T05:43:07;7.93;;;3.50;;
47960;SDS011;33721;48.852;9.936;2022-10-16T05:45:33;9.00;;;3.40;;
47960;SDS011;33721;48.852;9.936;2022-10-16T05:47:59;13.85;;;3.90;;
47960;SDS011;33721;48.852;9.936;2022-10-16T05:50:25;6.68;;;3.65;;
47960;SDS011;33721;48.852;9.936;2022-10-16T05:52:51;9.70;;;3.60;;
47960;SDS011;33721;48.852;9.936;2022-10-16T05:55:17;8.82;;;4.07;;
47960;SDS011;33721;48.852;9.936;2022-10-16T05:57:42;8.55;;;4.13;;
47960;SDS011;33721;48.852;9.936;2022-10-16T06:00:08;6.50;;;4.32;;
47960;SDS011;33721;48.852;9.936;2022-10-16T06:02:34;12.80;;;4.50;;
47960;SDS011;33721;48.852;9.936;2022-10-16T06:05:00;8.30;;;3.92;;
47960;SDS011;33721;48.852;9.936;2022-10-16T06:07:26;9.15;;;4.07;;
47960;SDS011;33721;48.852;9.936;2022-10-16T06:09:52;9.48;;;3.78;;
47960;SDS011;33721;48.852;9.936;2022-10-16T06:12:18;10.48;;;4.28;;
47960;SDS011;33721;48.852;9.936;2022-10-16T06:14:44;11.15;;;3.58;;
47960;SDS011;33721;48.852;9.936;2022-10-16T06:17:12;4.93;;;3.63;;
47960;SDS011;33721;48.852;9.936;2022-10-16T06:19:38;6.20;;;3.20;;
47960;SDS011;33721;48.852;9.936;2022-10-16T06:22:04;4.63;;;3.00;;
47960;SDS011;33721;48.852;9.936;2022-10-16T06:24:30;8.68;;;3.35;;
47960;SDS011;33721;48.852;9.936;2022-10-16T06:26:55;6.47;;;2.90;;
47960;SDS011;33721;48.852;9.936;2022-10-16T06:29:21;4.35;;;3.33;;
47960;SDS011;33721;48.852;9.936;2022-10-16T06:31:46;9.73;;;4.18;;
47960;SDS011;33721;48.852;9.936;2022-10-16T06:34:12;8.55;;;4.28;;
47960;SDS011;33721;48.852;9.936;2022-10-16T06:36:38;13.70;;;3.80;;
47960;SDS011;33721;48.852;9.936;2022-10-16T06:39:04;6.88;;;3.53;;
47960;SDS011;33721;48.852;9.936;2022-10-16T06:41:32;8.25;;;3.47;;
47960;SDS011;33721;48.852;9.936;2022-10-16T06:43:58;6.82;;;3.72;;
47960;SDS011;33721;48.852;9.936;2022-10-16T06:46:24;9.90;;;4.78;;
47960;SDS011;33721;48.852;9.936;2022-10-16T06:48:51;6.75;;;3.95;;
47960;SDS011;33721;48.852;9.936;2022-10-16T06:51:18;7.82;;;3.78;;
47960;SDS011;33721;48.852;9.936;2022-10-16T06:53:47;7.30;;;3.67;;
47960;SDS011;33721;48.852;9.936;2022-10-16T06:56:18;6.43;;;3.38;;
47960;SDS011;33721;48.852;9.936;2022-10-16T06:58:48;6.63;;;3.17;;
47960;SDS011;33721;48.852;9.936;2022-10-16T07:01:16;9.10;;;3.17;;
47960;SDS011;33721;48.852;9.936;2022-10-16T07:03:43;8.95;;;4.00;;
47960;SDS011;33721;48.852;9.936;2022-10-16T07:06:11;6.22;;;3.83;;
47960;SDS011;33721;48.852;9.936;2022-10-16T07:08:39;12.85;;;4.20;;
47960;SDS011;33721;48.852;9.936;2022-10-16T07:11:09;14.65;;;4.32;;
47960;SDS011;33721;48.852;9.936;2022-10-16T07:13:37;8.10;;;4.00;;
47960;SDS011;33721;48.852;9.936;2022-10-16T07:16:08;7.38;;;3.78;;
47960;SDS011;33721;48.852;9.936;2022-10-16T07:18:38;8.20;;;3.88;;
47960;SDS011;33721;48.852;9.936;2022-10-16T07:21:06;12.02;;;3.60;;
47960;SDS011;33721;48.852;9.936;2022-10-16T07:23:32;8.57;;;3.97;;
47960;SDS011;33721;48.852;9.936;2022-10-16T07:25:58;5.95;;;3.75;;
47960;SDS011;33721;48.852;9.936;2022-10-16T07:28:24;9.35;;;3.35;;
47960;SDS011;33721;48.852;9.936;2022-10-16T07:30:50;6.05;;;3.60;;
47960;SDS011;33721;48.852;9.936;2022-10-16T07:33:15;9.43;;;4.05;;
47960;SDS011;33721;48.852;9.936;2022-10-16T07:35:48;5.47;;;3.25;;
47960;SDS011;33721;48.852;9.936;2022-10-16T07:38:17;9.85;;;3.58;;
47960;SDS011;33721;48.852;9.936;2022-10-16T07:40:44;9.98;;;3.70;;
47960;SDS011;33721;48.852;9.936;2022-10-16T07:43:10;6.18;;;3.83;;
47960;SDS011;33721;48.852;9.936;2022-10-16T07:45:36;8.05;;;4.80;;
47960;SDS011;33721;48.852;9.936;2022-10-16T07:48:02;18.25;;;4.85;;
47960;SDS011;33721;48.852;9.936;2022-10-16T07:50:28;9.02;;;5.15;;
47960;SDS011;33721;48.852;9.936;2022-10-16T07:52:53;13.20;;;5.90;;
47960;SDS011;33721;48.852;9.936;2022-10-16T07:55:19;13.32;;;4.60;;
47960;SDS011;33721;48.852;9.936;2022-10-16T07:57:45;11.73;;;4.43;;
47960;SDS011;33721;48.852;9.936;2022-10-16T08:00:10;22.45;;;4.95;;
47960;SDS011;33721;48.852;9.936;2022-10-16T08:02:40;9.82;;;4.90;;
47960;SDS011;33721;48.852;9.936;2022-10-16T08:05:06;8.73;;;5.32;;
47960;SDS011;33721;48.852;9.936;2022-10-16T08:07:32;9.52;;;5.50;;
47960;SDS011;33721;48.852;9.936;2022-10-16T08:09:57;17.13;;;7.13;;
47960;SDS011;33721;48.852;9.936;2022-10-16T08:12:24;12.07;;;6.18;;
47960;SDS011;33721;48.852;9.936;2022-10-16T08:14:52;11.75;;;6.45;;
47960;SDS011;33721;48.852;9.936;2022-10-16T08:17:18;15.75;;;6.93;;
47960;SDS011;33721;48.852;9.936;2022-10-16T08:19:44;14.35;;;6.57;;
47960;SDS011;33721;48.852;9.936;2022-10-16T08:22:13;9.82;;;6.32;;
47960;SDS011;33721;48.852;9.936;2022-10-16T08:24:39;13.85;;;6.28;;
47960;SDS011;33721;48.852;9.936;2022-10-16T08:27:05;10.13;;;6.10;;
47960;SDS011;33721;48.852;9.936;2022-10-16T08:29:32;13.20;;;6.30;;
47960;SDS011;33721;48.852;9.936;2022-10-16T08:31:57;10.30;;;5.50;;
47960;SDS011;33721;48.852;9.936;2022-10-16T08:34:23;13.98;;;5.65;;
47960;SDS011;33721;48.852;9.936;2022-10-16T08:36:49;8.07;;;5.22;;
47960;SDS011;33721;48.852;9.936;2022-10-16T08:39:15;11.10;;;6.53;;
47960;SDS011;33721;48.852;9.936;2022-10-16T08:42:01;11.57;;;5.68;;
47960;SDS011;33721;48.852;9.936;2022-10-16T08:45:08;23.60;;;11.43;;
47960;SDS011;33721;48.852;9.936;2022-10-16T08:47:45;30.55;;;14.82;;
47960;SDS011;33721;48.852;9.936;2022-10-16T08:50:17;20.65;;;8.85;;
47960;SDS011;33721;48.852;9.936;2022-10-16T08:52:52;17.05;;;6.30;;
47960;SDS011;33721;48.852;9.936;2022-10-16T08:55:28;6.78;;;3.85;;
47960;SDS011;33721;48.852;9.936;2022-10-16T09:00:41;8.77;;;3.90;;
47960;SDS011;33721;48.852;9.936;2022-10-16T09:14:13;6.60;;;3.50;;
47960;SDS011;33721;48.852;9.936;2022-10-16T09:17:04;6.93;;;3.90;;
47960;SDS011;33721;48.852;9.936;2022-10-16T09:19:44;9.45;;;3.35;;
47960;SDS011;33721;48.852;9.936;2022-10-16T09:22:17;7.13;;;3.65;;
47960;SDS011;33721;48.852;9.936;2022-10-16T09:24:53;5.95;;;2.90;;
47960;SDS011;33721;48.852;9.936;2022-10-16T09:27:23;3.90;;;2.55;;
47960;SDS011;33721;48.852;9.936;2022-10-16T09:29:49;4.47;;;2.28;;
47960;SDS011;33721;48.852;9.936;2022-10-16T09:32:19;9.07;;;2.42;;
47960;SDS011;33721;48.852;9.936;2022-10-16T09:34:48;5.28;;;2.20;;
47960;SDS011;33721;48.852;9.936;2022-10-16T09:37:17;6.22;;;2.65;;
47960;SDS011;33721;48.852;9.936;2022-10-16T09:39:51;11.85;;;3.25;;
47960;SDS011;33721;48.852;9.936;2022-10-16T09:42:28;7.97;;;4.22;;
47960;SDS011;33721;48.852;9.936;2022-10-16T09:44:57;5.18;;;3.35;;
47960;SDS011;33721;48.852;9.936;2022-10-16T09:47:23;9.25;;;3.45;;
47960;SDS011;33721;48.852;9.936;2022-10-16T09:50:13;6.60;;;3.15;;
47960;SDS011;33721;48.852;9.936;2022-10-16T09:52:46;7.45;;;3.45;;
47960;SDS011;33721;48.852;9.936;2022-10-16T09:55:13;10.07;;;3.97;;
47960;SDS011;33721;48.852;9.936;2022-10-16T09:57:54;13.55;;;6.28;;
47960;SDS011;33721;48.852;9.936;2022-10-16T10:00:20;18.80;;;9.57;;
47960;SDS011;33721;48.852;9.936;2022-10-16T10:02:47;9.93;;;5.65;;
47960;SDS011;33721;48.852;9.936;2022-10-16T10:05:20;6.68;;;4.03;;
47960;SDS011;33721;48.852;9.936;2022-10-16T10:07:55;10.00;;;3.35;;
47960;SDS011;33721;48.852;9.936;2022-10-16T10:10:29;9.30;;;4.07;;
47960;SDS011;33721;48.852;9.936;2022-10-16T10:12:56;9.45;;;3.00;;
47960;SDS011;33721;48.852;9.936;2022-10-16T10:15:23;7.15;;;3.10;;
47960;SDS011;33721;48.852;9.936;2022-10-16T10:17:55;4.90;;;2.30;;
47960;SDS011;33721;48.852;9.936;2022-10-16T10:20:32;3.95;;;2.00;;
47960;SDS011;33721;48.852;9.936;2022-10-16T10:23:00;5.07;;;1.90;;
47960;SDS011;33721;48.852;9.936;2022-10-16T10:30:59;4.40;;;1.55;;
47960;SDS011;33721;48.852;9.936;2022-10-16T10:41:42;3.03;;;1.20;;
47960;SDS011;33721;48.852;9.936;2022-10-16T10:44:16;2.47;;;1.50;;
47960;SDS011;33721;48.852;9.936;2022-10-16T10:47:19;3.00;;;1.38;;
47960;SDS011;33721;48.852;9.936;2022-10-16T10:52:43;5.30;;;1.55;;
47960;SDS011;33721;48.852;9.936;2022-10-16T10:55:24;5.68;;;1.48;;
47960;SDS011;33721;48.852;9.936;2022-10-16T11:06:32;8.68;;;2.53;;
47960;SDS011;33721;48.852;9.936;2022-10-16T11:09:00;4.18;;;1.48;;
47960;SDS011;33721;48.852;9.936;2022-10-16T11:11:49;4.63;;;1.48;;
47960;SDS011;33721;48.852;9.936;2022-10-16T11:14:18;3.08;;;1.38;;
47960;SDS011;33721;48.852;9.936;2022-10-16T11:16:51;3.83;;;1.30;;
47960;SDS011;33721;48.852;9.936;2022-10-16T11:25:16;7.72;;;1.60;;
47960;SDS011;33721;48.852;9.936;2022-10-16T11:27:50;3.97;;;1.20;;
47960;SDS011;33721;48.852;9.936;2022-10-16T11:33:34;2.85;;;1.10;;
47960;SDS011;33721;48.852;9.936;2022-10-16T11:38:35;6.50;;;1.20;;
47960;SDS011;33721;48.852;9.936;2022-10-16T11:46:40;2.13;;;1.27;;
47960;SDS011;33721;48.852;9.936;2022-10-16T11:49:18;5.00;;;1.30;;
47960;SDS011;33721;48.852;9.936;2022-10-16T11:52:06;1.92;;;1.33;;
47960;SDS011;33721;48.852;9.936;2022-10-16T11:54:44;4.18;;;1.33;;
47960;SDS011;33721;48.852;9.936;2022-10-16T11:57:25;4.40;;;1.30;;
47960;SDS011;33721;48.852;9.936;2022-10-16T12:02:38;5.45;;;1.23;;
47960;SDS011;33721;48.852;9.936;2022-10-16T12:05:11;4.53;;;1.48;;
47960;SDS011;33721;48.852;9.936;2022-10-16T12:10:25;2.75;;;1.05;;
47960;SDS011;33721;48.852;9.936;2022-10-16T12:12:52;5.57;;;1.50;;
47960;SDS011;33721;48.852;9.936;2022-10-16T12:15:23;2.47;;;1.20;;
47960;SDS011;33721;48.852;9.936;2022-10-16T12:17:51;3.78;;;1.20;;
47960;SDS011;33721;48.852;9.936;2022-10-16T12:22:55;3.20;;;1.55;;
47960;SDS011;33721;48.852;9.936;2022-10-16T12:25:25;6.72;;;1.33;;
47960;SDS011;33721;48.852;9.936;2022-10-16T12:27:58;1.88;;;1.33;;
47960;SDS011;33721;48.852;9.936;2022-10-16T12:30:26;3.55;;;1.35;;
47960;SDS011;33721;48.852;9.936;2022-10-16T12:32:55;4.40;;;1.20;;
47960;SDS011;33721;48.852;9.936;2022-10-16T12:35:23;8.30;;;1.50;;
47960;SDS011;33721;48.852;9.936;2022-10-16T12:37:52;1.60;;;1.00;;
47960;SDS011;33721;48.852;9.936;2022-10-16T12:40:26;4.38;;;1.52;;
47960;SDS011;33721;48.852;9.936;2022-10-16T12:42:57;4.50;;;1.17;;
47960;SDS011;33721;48.852;9.936;2022-10-16T12:47:54;3.45;;;1.48;;
47960;SDS011;33721;48.852;9.936;2022-10-16T12:52:51;12.55;;;1.63;;
47960;SDS011;33721;48.852;9.936;2022-10-16T12:55:18;2.45;;;1.20;;
47960;SDS011;33721;48.852;9.936;2022-10-16T13:00:47;1.70;;;1.20;;
47960;SDS011;33721;48.852;9.936;2022-10-16T13:04:01;2.13;;;1.20;;
47960;SDS011;33721;48.852;9.936;2022-10-16T13:06:51;5.70;;;1.27;;
47960;SDS011;33721;48.852;9.936;2022-10-16T13:13:03;2.28;;;1.30;;
47960;SDS011;33721;48.852;9.936;2022-10-16T13:15:41;1.83;;;1.00;;
47960;SDS011;33721;48.852;9.936;2022-10-16T13:24:00;4.95;;;1.30;;
47960;SDS011;33721;48.852;9.936;2022-10-16T13:26:45;4.30;;;1.17;;
47960;SDS011;33721;48.852;9.936;2022-10-16T13:31:39;2.67;;;1.50;;
47960;SDS011;33721;48.852;9.936;2022-10-16T13:34:05;3.40;;;1.48;;
47960;SDS011;33721;48.852;9.936;2022-10-16T13:36:48;1.33;;;0.93;;
47960;SDS011;33721;48.852;9.936;2022-10-16T13:42:00;13.95;;;1.40;;
47960;SDS011;33721;48.852;9.936;2022-10-16T13:44:28;5.85;;;1.80;;
47960;SDS011;33721;48.852;9.936;2022-10-16T13:47:00;3.35;;;1.33;;
47960;SDS011;33721;48.852;9.936;2022-10-16T13:49:27;3.33;;;2.20;;
47960;SDS011;33721;48.852;9.936;2022-10-16T13:51:53;2.15;;;1.55;;
47960;SDS011;33721;48.852;9.936;2022-10-16T13:54:24;8.98;;;1.48;;
47960;SDS011;33721;48.852;9.936;2022-10-16T13:56:51;6.35;;;1.20;;
47960;SDS011;33721;48.852;9.936;2022-10-16T13:59:24;2.15;;;1.42;;
47960;SDS011;33721;48.852;9.936;2022-10-16T14:01:53;4.10;;;1.30;;
47960;SDS011;33721;48.852;9.936;2022-10-16T14:04:21;4.80;;;1.20;;
47960;SDS011;33721;48.852;9.936;2022-10-16T14:06:49;1.55;;;1.23;;
47960;SDS011;33721;48.852;9.936;2022-10-16T14:09:26;2.28;;;1.20;;
47960;SDS011;33721;48.852;9.936;2022-10-16T14:12:06;3.75;;;1.30;;
47960;SDS011;33721;48.852;9.936;2022-10-16T14:14:40;5.80;;;1.40;;
47960;SDS011;33721;48.852;9.936;2022-10-16T14:17:14;5.10;;;1.42;;
47960;SDS011;33721;48.852;9.936;2022-10-16T14:19:48;5.35;;;1.42;;
47960;SDS011;33721;48.852;9.936;2022-10-16T14:22:23;2.65;;;1.30;;
47960;SDS011;33721;48.852;9.936;2022-10-16T14:24:59;1.13;;;1.00;;
47960;SDS011;33721;48.852;9.936;2022-10-16T14:27:32;6.97;;;4.50;;
47960;SDS011;33721;48.852;9.936;2022-10-16T14:30:09;5.50;;;2.80;;
47960;SDS011;33721;48.852;9.936;2022-10-16T14:32:54;6.20;;;1.52;;
47960;SDS011;33721;48.852;9.936;2022-10-16T14:37:59;5.55;;;1.60;;
47960;SDS011;33721;48.852;9.936;2022-10-16T14:40:30;2.03;;;1.30;;
47960;SDS011;33721;48.852;9.936;2022-10-16T14:42:58;2.45;;;1.38;;
47960;SDS011;33721;48.852;9.936;2022-10-16T14:45:26;2.75;;;1.27;;
47960;SDS011;33721;48.852;9.936;2022-10-16T14:47:56;2.90;;;1.42;;
47960;SDS011;33721;48.852;9.936;2022-10-16T14:50:23;1.42;;;1.17;;
47960;SDS011;33721;48.852;9.936;2022-10-16T14:52:49;2.60;;;1.30;;
47960;SDS011;33721;48.852;9.936;2022-10-16T14:55:16;2.20;;;1.50;;
47960;SDS011;33721;48.852;9.936;2022-10-16T14:57:42;3.53;;;1.50;;
47960;SDS011;33721;48.852;9.936;2022-10-16T15:00:19;3.33;;;1.42;;
47960;SDS011;33721;48.852;9.936;2022-10-16T15:02:47;4.78;;;1.50;;
47960;SDS011;33721;48.852;9.936;2022-10-16T15:05:18;4.85;;;1.40;;
47960;SDS011;33721;48.852;9.936;2022-10-16T15:07:46;3.00;;;1.58;;
47960;SDS011;33721;48.852;9.936;2022-10-16T15:10:14;3.55;;;1.60;;
47960;SDS011;33721;48.852;9.936;2022-10-16T15:12:41;3.45;;;1.33;;
47960;SDS011;33721;48.852;9.936;2022-10-16T15:17:48;3.90;;;1.55;;
47960;SDS011;33721;48.852;9.936;2022-10-16T15:20:17;2.15;;;1.40;;
47960;SDS011;33721;48.852;9.936;2022-10-16T15:22:43;3.05;;;1.30;;
47960;SDS011;33721;48.852;9.936;2022-10-16T15:25:28;5.00;;;1.60;;
47960;SDS011;33721;48.852;9.936;2022-10-16T15:28:02;5.38;;;1.60;;
47960;SDS011;33721;48.852;9.936;2022-10-16T15:30:28;5.72;;;1.70;;
47960;SDS011;33721;48.852;9.936;2022-10-16T15:32:54;12.85;;;1.63;;
47960;SDS011;33721;48.852;9.936;2022-10-16T15:35:20;3.45;;;1.50;;
47960;SDS011;33721;48.852;9.936;2022-10-16T15:37:47;5.75;;;2.22;;
47960;SDS011;33721;48.852;9.936;2022-10-16T15:40:13;5.03;;;1.90;;
47960;SDS011;33721;48.852;9.936;2022-10-16T15:42:39;10.98;;;2.35;;
47960;SDS011;33721;48.852;9.936;2022-10-16T15:45:05;6.15;;;1.83;;
47960;SDS011;33721;48.852;9.936;2022-10-16T15:47:31;4.97;;;1.73;;
47960;SDS011;33721;48.852;9.936;2022-10-16T15:49:57;5.97;;;1.50;;
47960;SDS011;33721;48.852;9.936;2022-10-16T15:52:23;6.38;;;1.58;;
47960;SDS011;33721;48.852;9.936;2022-10-16T15:54:48;4.10;;;1.90;;
47960;SDS011;33721;48.852;9.936;2022-10-16T15:57:14;3.95;;;1.80;;
47960;SDS011;33721;48.852;9.936;2022-10-16T15:59:40;7.85;;;2.67;;
47960;SDS011;33721;48.852;9.936;2022-10-16T16:02:05;6.53;;;2.60;;
47960;SDS011;33721;48.852;9.936;2022-10-16T16:04:32;9.55;;;2.70;;
47960;SDS011;33721;48.852;9.936;2022-10-16T16:06:58;11.18;;;2.10;;
47960;SDS011;33721;48.852;9.936;2022-10-16T16:09:24;4.88;;;2.40;;
47960;SDS011;33721;48.852;9.936;2022-10-16T16:11:49;7.22;;;2.33;;
47960;SDS011;33721;48.852;9.936;2022-10-16T16:14:17;8.25;;;2.00;;
47960;SDS011;33721;48.852;9.936;2022-10-16T16:16:42;3.40;;;1.95;;
47960;SDS011;33721;48.852;9.936;2022-10-16T16:19:08;10.20;;;1.88;;
47960;SDS011;33721;48.852;9.936;2022-10-16T16:21:34;3.83;;;1.80;;
47960;SDS011;33721;48.852;9.936;2022-10-16T16:24:00;6.00;;;2.20;;
47960;SDS011;33721;48.852;9.936;2022-10-16T16:26:29;12.52;;;2.10;;
47960;SDS011;33721;48.852;9.936;2022-10-16T16:29:01;7.38;;;1.85;;
47960;SDS011;33721;48.852;9.936;2022-10-16T16:31:28;10.02;;;2.75;;
47960;SDS011;33721;48.852;9.936;2022-10-16T16:33:55;10.73;;;2.60;;
47960;SDS011;33721;48.852;9.936;2022-10-16T16:36:22;4.05;;;2.08;;
47960;SDS011;33721;48.852;9.936;2022-10-16T16:38:48;4.30;;;1.73;;
47960;SDS011;33721;48.852;9.936;2022-10-16T16:41:18;3.80;;;2.20;;
47960;SDS011;33721;48.852;9.936;2022-10-16T16:43:46;6.85;;;2.20;;
47960;SDS011;33721;48.852;9.936;2022-10-16T16:46:16;6.78;;;2.20;;